sensor_id;sensor_type;location;lat;lon;timestamp;P1;durP1;ratioP1;P2;durP2;ratioP2
27895;SDS011;15241;48.374;10.876;2023-10-19T00:00:07;47.67;;;35.23;;
27895;SDS011;15241;48.374;10.876;2023-10-19T00:05:07;45.67;;;33.92;;
27895;SDS011;15241;48.374;10.876;2023-10-19T00:10:07;45.25;;;35.45;;
27895;SDS011;15241;48.374;10.876;2023-10-19T00:15:06;45.00;;;33.65;;
27895;SDS011;15241;48.374;10.876;2023-10-19T00:20:07;42.70;;;31.45;;
27895;SDS011;15241;48.374;10.876;2023-10-19T00:25:07;42.58;;;30.88;;
27895;SDS011;15241;48.374;10.876;2023-10-19T00:30:07;42.27;;;31.23;;
27895;SDS011;15241;48.374;10.876;2023-10-19T00:35:09;40.08;;;31.35;;
27895;SDS011;15241;48.374;10.876;2023-10-19T00:40:09;41.83;;;31.42;;
27895;SDS011;15241;48.374;10.876;2023-10-19T00:45:09;45.50;;;33.08;;
27895;SDS011;15241;48.374;10.876;2023-10-19T00:50:09;46.92;;;34.60;;
27895;SDS011;15241;48.374;10.876;2023-10-19T00:55:07;41.73;;;30.97;;
27895;SDS011;15241;48.374;10.876;2023-10-19T01:00:08;42.83;;;31.02;;
27895;SDS011;15241;48.374;10.876;2023-10-19T01:05:07;42.62;;;28.90;;
27895;SDS011;15241;48.374;10.876;2023-10-19T01:10:07;40.05;;;28.10;;
27895;SDS011;15241;48.374;10.876;2023-10-19T01:20:24;38.25;;;29.40;;
27895;SDS011;15241;48.374;10.876;2023-10-19T01:25:24;39.23;;;29.20;;
27895;SDS011;15241;48.374;10.876;2023-10-19T01:30:23;34.73;;;25.15;;
27895;SDS011;15241;48.374;10.876;2023-10-19T01:35:21;31.75;;;21.33;;
27895;SDS011;15241;48.374;10.876;2023-10-19T01:40:19;27.05;;;19.12;;
27895;SDS011;15241;48.374;10.876;2023-10-19T01:45:18;21.62;;;16.75;;
27895;SDS011;15241;48.374;10.876;2023-10-19T01:50:16;21.52;;;16.40;;
27895;SDS011;15241;48.374;10.876;2023-10-19T01:55:15;25.27;;;18.30;;
27895;SDS011;15241;48.374;10.876;2023-10-19T02:00:14;28.90;;;20.08;;
27895;SDS011;15241;48.374;10.876;2023-10-19T02:05:14;28.38;;;19.65;;
27895;SDS011;15241;48.374;10.876;2023-10-19T02:10:12;22.77;;;17.17;;
27895;SDS011;15241;48.374;10.876;2023-10-19T02:15:11;25.00;;;18.12;;
27895;SDS011;15241;48.374;10.876;2023-10-19T02:20:11;28.55;;;18.02;;
27895;SDS011;15241;48.374;10.876;2023-10-19T02:25:10;23.10;;;17.20;;
27895;SDS011;15241;48.374;10.876;2023-10-19T02:30:09;23.57;;;15.98;;
27895;SDS011;15241;48.374;10.876;2023-10-19T02:35:09;27.00;;;16.93;;
27895;SDS011;15241;48.374;10.876;2023-10-19T02:40:09;23.55;;;16.37;;
27895;SDS011;15241;48.374;10.876;2023-10-19T02:45:10;21.82;;;16.20;;
27895;SDS011;15241;48.374;10.876;2023-10-19T02:50:08;23.25;;;16.12;;
27895;SDS011;15241;48.374;10.876;2023-10-19T02:55:08;24.75;;;15.68;;
27895;SDS011;15241;48.374;10.876;2023-10-19T03:00:08;19.20;;;14.23;;
27895;SDS011;15241;48.374;10.876;2023-10-19T03:05:08;17.73;;;13.43;;
27895;SDS011;15241;48.374;10.876;2023-10-19T03:10:07;18.92;;;13.25;;
27895;SDS011;15241;48.374;10.876;2023-10-19T03:15:06;18.15;;;12.35;;
27895;SDS011;15241;48.374;10.876;2023-10-19T03:20:07;18.82;;;13.32;;
27895;SDS011;15241;48.374;10.876;2023-10-19T03:25:07;16.93;;;12.37;;
27895;SDS011;15241;48.374;10.876;2023-10-19T03:30:07;17.12;;;11.95;;
27895;SDS011;15241;48.374;10.876;2023-10-19T03:35:07;14.83;;;11.90;;
27895;SDS011;15241;48.374;10.876;2023-10-19T03:40:07;34.20;;;22.17;;
27895;SDS011;15241;48.374;10.876;2023-10-19T03:45:07;20.88;;;14.23;;
27895;SDS011;15241;48.374;10.876;2023-10-19T03:50:07;14.55;;;11.80;;
27895;SDS011;15241;48.374;10.876;2023-10-19T03:55:07;16.10;;;11.68;;
27895;SDS011;15241;48.374;10.876;2023-10-19T04:00:07;15.98;;;11.53;;
27895;SDS011;15241;48.374;10.876;2023-10-19T04:05:07;14.70;;;11.85;;
27895;SDS011;15241;48.374;10.876;2023-10-19T04:10:07;15.30;;;10.63;;
27895;SDS011;15241;48.374;10.876;2023-10-19T04:15:07;15.08;;;10.95;;
27895;SDS011;15241;48.374;10.876;2023-10-19T04:20:08;12.88;;;10.48;;
27895;SDS011;15241;48.374;10.876;2023-10-19T04:25:08;15.75;;;10.08;;
27895;SDS011;15241;48.374;10.876;2023-10-19T04:30:08;15.58;;;11.45;;
27895;SDS011;15241;48.374;10.876;2023-10-19T04:35:07;15.53;;;10.90;;
27895;SDS011;15241;48.374;10.876;2023-10-19T04:40:07;15.70;;;10.90;;
27895;SDS011;15241;48.374;10.876;2023-10-19T04:45:07;16.10;;;11.33;;
27895;SDS011;15241;48.374;10.876;2023-10-19T04:50:07;15.08;;;10.20;;
27895;SDS011;15241;48.374;10.876;2023-10-19T04:55:07;16.50;;;11.08;;
27895;SDS011;15241;48.374;10.876;2023-10-19T05:00:07;18.35;;;10.70;;
27895;SDS011;15241;48.374;10.876;2023-10-19T05:05:06;12.40;;;10.35;;
27895;SDS011;15241;48.374;10.876;2023-10-19T05:10:06;13.38;;;10.35;;
27895;SDS011;15241;48.374;10.876;2023-10-19T05:15:06;13.38;;;11.12;;
27895;SDS011;15241;48.374;10.876;2023-10-19T05:20:06;13.62;;;10.82;;
27895;SDS011;15241;48.374;10.876;2023-10-19T05:25:06;15.58;;;10.93;;
27895;SDS011;15241;48.374;10.876;2023-10-19T05:30:06;14.85;;;10.88;;
27895;SDS011;15241;48.374;10.876;2023-10-19T05:35:06;15.70;;;11.90;;
27895;SDS011;15241;48.374;10.876;2023-10-19T05:40:05;12.55;;;10.05;;
27895;SDS011;15241;48.374;10.876;2023-10-19T05:45:06;15.03;;;11.38;;
27895;SDS011;15241;48.374;10.876;2023-10-19T05:50:06;15.25;;;11.73;;
27895;SDS011;15241;48.374;10.876;2023-10-19T05:55:06;16.05;;;11.00;;
27895;SDS011;15241;48.374;10.876;2023-10-19T06:00:06;13.25;;;10.63;;
27895;SDS011;15241;48.374;10.876;2023-10-19T06:05:06;14.60;;;11.60;;
27895;SDS011;15241;48.374;10.876;2023-10-19T06:10:06;13.25;;;10.45;;
27895;SDS011;15241;48.374;10.876;2023-10-19T06:15:09;13.88;;;11.10;;
27895;SDS011;15241;48.374;10.876;2023-10-19T06:20:09;14.83;;;10.50;;
27895;SDS011;15241;48.374;10.876;2023-10-19T06:25:10;13.55;;;10.18;;
27895;SDS011;15241;48.374;10.876;2023-10-19T06:30:10;14.18;;;10.58;;
27895;SDS011;15241;48.374;10.876;2023-10-19T06:35:09;13.53;;;10.35;;
27895;SDS011;15241;48.374;10.876;2023-10-19T06:40:09;15.90;;;10.90;;
27895;SDS011;15241;48.374;10.876;2023-10-19T06:45:09;14.00;;;10.88;;
27895;SDS011;15241;48.374;10.876;2023-10-19T06:50:09;14.68;;;11.22;;
27895;SDS011;15241;48.374;10.876;2023-10-19T06:55:08;13.10;;;9.80;;
27895;SDS011;15241;48.374;10.876;2023-10-19T07:00:08;13.60;;;9.20;;
27895;SDS011;15241;48.374;10.876;2023-10-19T07:05:09;15.35;;;10.35;;
27895;SDS011;15241;48.374;10.876;2023-10-19T07:10:07;13.88;;;10.05;;
27895;SDS011;15241;48.374;10.876;2023-10-19T07:15:07;15.13;;;9.25;;
27895;SDS011;15241;48.374;10.876;2023-10-19T07:20:07;10.58;;;9.48;;
27895;SDS011;15241;48.374;10.876;2023-10-19T07:25:08;14.03;;;9.88;;
27895;SDS011;15241;48.374;10.876;2023-10-19T07:30:08;10.82;;;9.25;;
27895;SDS011;15241;48.374;10.876;2023-10-19T07:35:08;12.55;;;9.43;;
27895;SDS011;15241;48.374;10.876;2023-10-19T07:40:08;11.83;;;9.00;;
27895;SDS011;15241;48.374;10.876;2023-10-19T07:45:08;11.18;;;9.45;;
27895;SDS011;15241;48.374;10.876;2023-10-19T07:50:08;12.80;;;8.93;;
27895;SDS011;15241;48.374;10.876;2023-10-19T07:55:07;13.55;;;8.80;;
27895;SDS011;15241;48.374;10.876;2023-10-19T08:00:07;12.00;;;9.20;;
27895;SDS011;15241;48.374;10.876;2023-10-19T08:05:07;10.72;;;8.50;;
27895;SDS011;15241;48.374;10.876;2023-10-19T08:10:07;12.37;;;8.73;;
27895;SDS011;15241;48.374;10.876;2023-10-19T08:15:08;10.85;;;8.60;;
27895;SDS011;15241;48.374;10.876;2023-10-19T08:20:08;12.90;;;8.43;;
27895;SDS011;15241;48.374;10.876;2023-10-19T08:25:09;10.72;;;8.40;;
27895;SDS011;15241;48.374;10.876;2023-10-19T08:30:08;13.72;;;9.08;;
27895;SDS011;15241;48.374;10.876;2023-10-19T08:35:07;11.83;;;9.58;;
27895;SDS011;15241;48.374;10.876;2023-10-19T08:40:07;16.00;;;9.83;;
27895;SDS011;15241;48.374;10.876;2023-10-19T08:45:09;12.78;;;8.15;;
27895;SDS011;15241;48.374;10.876;2023-10-19T08:50:08;15.60;;;10.23;;
27895;SDS011;15241;48.374;10.876;2023-10-19T08:55:08;12.43;;;9.08;;
27895;SDS011;15241;48.374;10.876;2023-10-19T09:00:07;14.45;;;9.75;;
27895;SDS011;15241;48.374;10.876;2023-10-19T09:05:07;13.53;;;9.73;;
27895;SDS011;15241;48.374;10.876;2023-10-19T09:10:07;11.40;;;8.88;;
27895;SDS011;15241;48.374;10.876;2023-10-19T09:15:07;14.35;;;9.28;;
27895;SDS011;15241;48.374;10.876;2023-10-19T09:20:14;10.03;;;8.58;;
27895;SDS011;15241;48.374;10.876;2023-10-19T09:25:12;10.00;;;8.00;;
27895;SDS011;15241;48.374;10.876;2023-10-19T09:30:12;11.55;;;9.05;;
27895;SDS011;15241;48.374;10.876;2023-10-19T09:35:12;12.20;;;9.23;;
27895;SDS011;15241;48.374;10.876;2023-10-19T09:40:12;13.05;;;8.93;;
27895;SDS011;15241;48.374;10.876;2023-10-19T09:45:11;12.33;;;8.45;;
27895;SDS011;15241;48.374;10.876;2023-10-19T09:50:11;14.23;;;9.40;;
27895;SDS011;15241;48.374;10.876;2023-10-19T09:55:12;14.47;;;8.78;;
27895;SDS011;15241;48.374;10.876;2023-10-19T10:00:12;12.70;;;8.80;;
27895;SDS011;15241;48.374;10.876;2023-10-19T10:10:42;13.45;;;8.35;;
27895;SDS011;15241;48.374;10.876;2023-10-19T10:15:41;9.73;;;7.75;;
27895;SDS011;15241;48.374;10.876;2023-10-19T10:26:03;12.70;;;9.10;;
27895;SDS011;15241;48.374;10.876;2023-10-19T10:31:11;11.20;;;8.65;;
27895;SDS011;15241;48.374;10.876;2023-10-19T10:36:11;11.25;;;8.80;;
27895;SDS011;15241;48.374;10.876;2023-10-19T10:41:09;12.75;;;8.95;;
27895;SDS011;15241;48.374;10.876;2023-10-19T10:46:08;12.15;;;8.48;;
27895;SDS011;15241;48.374;10.876;2023-10-19T10:51:14;11.68;;;8.00;;
27895;SDS011;15241;48.374;10.876;2023-10-19T10:56:14;15.75;;;7.00;;
27895;SDS011;15241;48.374;10.876;2023-10-19T11:01:12;9.00;;;7.10;;
27895;SDS011;15241;48.374;10.876;2023-10-19T11:06:11;13.22;;;8.63;;
27895;SDS011;15241;48.374;10.876;2023-10-19T11:11:09;13.03;;;8.23;;
27895;SDS011;15241;48.374;10.876;2023-10-19T11:16:08;13.83;;;9.08;;
27895;SDS011;15241;48.374;10.876;2023-10-19T11:21:07;13.20;;;8.88;;
27895;SDS011;15241;48.374;10.876;2023-10-19T11:26:06;12.05;;;8.95;;
27895;SDS011;15241;48.374;10.876;2023-10-19T11:31:12;14.80;;;9.90;;
27895;SDS011;15241;48.374;10.876;2023-10-19T11:36:11;10.50;;;9.23;;
27895;SDS011;15241;48.374;10.876;2023-10-19T11:41:10;13.48;;;9.35;;
27895;SDS011;15241;48.374;10.876;2023-10-19T11:46:09;9.90;;;7.85;;
27895;SDS011;15241;48.374;10.876;2023-10-19T11:51:08;12.33;;;8.83;;
27895;SDS011;15241;48.374;10.876;2023-10-19T11:56:07;10.88;;;8.23;;
27895;SDS011;15241;48.374;10.876;2023-10-19T12:01:06;10.68;;;7.92;;
27895;SDS011;15241;48.374;10.876;2023-10-19T12:06:06;10.45;;;7.53;;
27895;SDS011;15241;48.374;10.876;2023-10-19T12:11:04;11.33;;;7.55;;
27895;SDS011;15241;48.374;10.876;2023-10-19T12:16:03;9.53;;;7.42;;
27895;SDS011;15241;48.374;10.876;2023-10-19T12:21:02;7.83;;;6.10;;
27895;SDS011;15241;48.374;10.876;2023-10-19T12:26:00;9.30;;;5.03;;
27895;SDS011;15241;48.374;10.876;2023-10-19T12:30:58;4.95;;;4.17;;
27895;SDS011;15241;48.374;10.876;2023-10-19T12:35:57;7.80;;;3.85;;
27895;SDS011;15241;48.374;10.876;2023-10-19T12:40:55;6.65;;;4.33;;
27895;SDS011;15241;48.374;10.876;2023-10-19T12:45:53;5.50;;;3.77;;
27895;SDS011;15241;48.374;10.876;2023-10-19T12:50:52;4.47;;;3.87;;
27895;SDS011;15241;48.374;10.876;2023-10-19T12:55:50;7.67;;;5.42;;
27895;SDS011;15241;48.374;10.876;2023-10-19T13:00:49;5.33;;;4.83;;
27895;SDS011;15241;48.374;10.876;2023-10-19T13:05:47;8.43;;;4.58;;
27895;SDS011;15241;48.374;10.876;2023-10-19T13:10:47;5.37;;;4.00;;
27895;SDS011;15241;48.374;10.876;2023-10-19T13:15:45;5.28;;;3.83;;
27895;SDS011;15241;48.374;10.876;2023-10-19T13:20:44;5.20;;;4.03;;
27895;SDS011;15241;48.374;10.876;2023-10-19T13:25:44;4.60;;;3.50;;
27895;SDS011;15241;48.374;10.876;2023-10-19T13:30:45;3.95;;;3.42;;
27895;SDS011;15241;48.374;10.876;2023-10-19T13:35:44;6.85;;;3.70;;
27895;SDS011;15241;48.374;10.876;2023-10-19T13:40:44;7.20;;;3.92;;
27895;SDS011;15241;48.374;10.876;2023-10-19T13:45:42;5.45;;;3.62;;
27895;SDS011;15241;48.374;10.876;2023-10-19T13:50:43;7.28;;;4.22;;
27895;SDS011;15241;48.374;10.876;2023-10-19T13:55:43;5.90;;;4.10;;
27895;SDS011;15241;48.374;10.876;2023-10-19T14:00:42;5.05;;;4.42;;
27895;SDS011;15241;48.374;10.876;2023-10-19T14:05:41;8.05;;;5.42;;
27895;SDS011;15241;48.374;10.876;2023-10-19T14:10:41;10.80;;;5.10;;
27895;SDS011;15241;48.374;10.876;2023-10-19T14:15:40;5.92;;;4.50;;
27895;SDS011;15241;48.374;10.876;2023-10-19T14:20:38;5.92;;;4.45;;
27895;SDS011;15241;48.374;10.876;2023-10-19T14:25:37;6.03;;;4.90;;
27895;SDS011;15241;48.374;10.876;2023-10-19T14:30:35;4.85;;;3.80;;
27895;SDS011;15241;48.374;10.876;2023-10-19T14:35:34;5.00;;;3.50;;
27895;SDS011;15241;48.374;10.876;2023-10-19T14:40:32;4.92;;;3.98;;
27895;SDS011;15241;48.374;10.876;2023-10-19T14:45:30;6.08;;;4.50;;
27895;SDS011;15241;48.374;10.876;2023-10-19T14:50:29;6.03;;;4.45;;
27895;SDS011;15241;48.374;10.876;2023-10-19T14:55:28;6.65;;;4.92;;
27895;SDS011;15241;48.374;10.876;2023-10-19T15:00:26;8.45;;;5.60;;
27895;SDS011;15241;48.374;10.876;2023-10-19T15:05:26;7.22;;;5.78;;
27895;SDS011;15241;48.374;10.876;2023-10-19T15:10:25;6.92;;;6.15;;
27895;SDS011;15241;48.374;10.876;2023-10-19T15:15:24;9.48;;;7.45;;
27895;SDS011;15241;48.374;10.876;2023-10-19T15:20:24;10.72;;;7.22;;
27895;SDS011;15241;48.374;10.876;2023-10-19T15:25:24;10.88;;;6.92;;
27895;SDS011;15241;48.374;10.876;2023-10-19T15:30:22;10.08;;;6.90;;
27895;SDS011;15241;48.374;10.876;2023-10-19T15:35:21;9.80;;;6.55;;
27895;SDS011;15241;48.374;10.876;2023-10-19T15:40:19;10.68;;;8.10;;
27895;SDS011;15241;48.374;10.876;2023-10-19T15:45:18;10.35;;;7.30;;
27895;SDS011;15241;48.374;10.876;2023-10-19T15:50:16;13.53;;;7.25;;
27895;SDS011;15241;48.374;10.876;2023-10-19T15:55:15;13.35;;;7.50;;
27895;SDS011;15241;48.374;10.876;2023-10-19T16:00:14;15.05;;;7.90;;
27895;SDS011;15241;48.374;10.876;2023-10-19T16:05:13;11.08;;;8.00;;
27895;SDS011;15241;48.374;10.876;2023-10-19T16:10:12;15.23;;;10.48;;
27895;SDS011;15241;48.374;10.876;2023-10-19T16:15:11;21.73;;;17.07;;
27895;SDS011;15241;48.374;10.876;2023-10-19T16:20:10;14.40;;;11.45;;
27895;SDS011;15241;48.374;10.876;2023-10-19T16:25:09;15.38;;;9.63;;
27895;SDS011;15241;48.374;10.876;2023-10-19T16:30:08;13.45;;;8.88;;
27895;SDS011;15241;48.374;10.876;2023-10-19T16:35:08;9.60;;;7.55;;
27895;SDS011;15241;48.374;10.876;2023-10-19T16:40:08;12.05;;;8.43;;
27895;SDS011;15241;48.374;10.876;2023-10-19T16:45:08;12.35;;;8.35;;
27895;SDS011;15241;48.374;10.876;2023-10-19T16:50:07;13.83;;;9.35;;
27895;SDS011;15241;48.374;10.876;2023-10-19T16:55:08;11.93;;;10.10;;
27895;SDS011;15241;48.374;10.876;2023-10-19T17:00:08;15.15;;;10.95;;
27895;SDS011;15241;48.374;10.876;2023-10-19T17:05:08;13.90;;;10.72;;
27895;SDS011;15241;48.374;10.876;2023-10-19T17:10:07;12.65;;;9.75;;
27895;SDS011;15241;48.374;10.876;2023-10-19T17:15:07;15.00;;;10.43;;
27895;SDS011;15241;48.374;10.876;2023-10-19T17:20:07;14.85;;;11.45;;
27895;SDS011;15241;48.374;10.876;2023-10-19T17:25:07;14.50;;;10.30;;
27895;SDS011;15241;48.374;10.876;2023-10-19T17:30:07;12.85;;;10.60;;
27895;SDS011;15241;48.374;10.876;2023-10-19T17:35:07;15.88;;;11.12;;
27895;SDS011;15241;48.374;10.876;2023-10-19T17:40:07;20.70;;;15.70;;
27895;SDS011;15241;48.374;10.876;2023-10-19T17:45:07;14.15;;;11.50;;
27895;SDS011;15241;48.374;10.876;2023-10-19T17:50:07;14.45;;;10.65;;
27895;SDS011;15241;48.374;10.876;2023-10-19T17:55:07;11.53;;;8.30;;
27895;SDS011;15241;48.374;10.876;2023-10-19T18:00:07;10.28;;;7.12;;
27895;SDS011;15241;48.374;10.876;2023-10-19T18:05:08;8.73;;;7.83;;
27895;SDS011;15241;48.374;10.876;2023-10-19T18:10:08;7.80;;;6.60;;
27895;SDS011;15241;48.374;10.876;2023-10-19T18:15:08;7.80;;;6.30;;
27895;SDS011;15241;48.374;10.876;2023-10-19T18:20:09;9.18;;;6.40;;
27895;SDS011;15241;48.374;10.876;2023-10-19T18:25:08;8.83;;;6.62;;
27895;SDS011;15241;48.374;10.876;2023-10-19T18:30:08;10.50;;;7.22;;
27895;SDS011;15241;48.374;10.876;2023-10-19T18:35:08;10.00;;;7.60;;
27895;SDS011;15241;48.374;10.876;2023-10-19T18:40:08;10.85;;;7.92;;
27895;SDS011;15241;48.374;10.876;2023-10-19T18:45:07;12.25;;;8.73;;
27895;SDS011;15241;48.374;10.876;2023-10-19T18:50:07;9.43;;;8.08;;
27895;SDS011;15241;48.374;10.876;2023-10-19T18:55:07;10.58;;;9.00;;
27895;SDS011;15241;48.374;10.876;2023-10-19T19:00:07;10.68;;;8.58;;
27895;SDS011;15241;48.374;10.876;2023-10-19T19:05:07;11.65;;;9.68;;
27895;SDS011;15241;48.374;10.876;2023-10-19T19:10:06;13.08;;;9.95;;
27895;SDS011;15241;48.374;10.876;2023-10-19T19:15:06;11.90;;;10.03;;
27895;SDS011;15241;48.374;10.876;2023-10-19T19:20:07;14.47;;;10.20;;
27895;SDS011;15241;48.374;10.876;2023-10-19T19:25:07;15.23;;;9.75;;
27895;SDS011;15241;48.374;10.876;2023-10-19T19:30:07;15.05;;;10.18;;
27895;SDS011;15241;48.374;10.876;2023-10-19T19:35:07;14.25;;;10.38;;
27895;SDS011;15241;48.374;10.876;2023-10-19T19:40:08;14.03;;;10.35;;
27895;SDS011;15241;48.374;10.876;2023-10-19T19:45:09;14.18;;;10.35;;
27895;SDS011;15241;48.374;10.876;2023-10-19T19:50:09;13.75;;;10.15;;
27895;SDS011;15241;48.374;10.876;2023-10-19T19:55:08;16.37;;;11.38;;
27895;SDS011;15241;48.374;10.876;2023-10-19T20:00:09;15.90;;;11.15;;
27895;SDS011;15241;48.374;10.876;2023-10-19T20:05:09;16.62;;;11.65;;
27895;SDS011;15241;48.374;10.876;2023-10-19T20:10:08;16.15;;;11.05;;
27895;SDS011;15241;48.374;10.876;2023-10-19T20:15:08;16.45;;;11.78;;
27895;SDS011;15241;48.374;10.876;2023-10-19T20:20:08;16.42;;;13.05;;
27895;SDS011;15241;48.374;10.876;2023-10-19T20:25:07;18.20;;;12.47;;
27895;SDS011;15241;48.374;10.876;2023-10-19T20:30:09;17.32;;;12.68;;
27895;SDS011;15241;48.374;10.876;2023-10-19T20:35:09;17.60;;;13.18;;
27895;SDS011;15241;48.374;10.876;2023-10-19T20:40:08;16.60;;;12.45;;
27895;SDS011;15241;48.374;10.876;2023-10-19T20:45:08;15.58;;;12.00;;
27895;SDS011;15241;48.374;10.876;2023-10-19T20:50:08;18.05;;;13.18;;
27895;SDS011;15241;48.374;10.876;2023-10-19T20:55:07;19.77;;;14.07;;
27895;SDS011;15241;48.374;10.876;2023-10-19T21:00:07;20.32;;;15.20;;
27895;SDS011;15241;48.374;10.876;2023-10-19T21:05:07;25.55;;;18.98;;
27895;SDS011;15241;48.374;10.876;2023-10-19T21:10:08;27.37;;;18.23;;
27895;SDS011;15241;48.374;10.876;2023-10-19T21:15:08;19.92;;;15.85;;
27895;SDS011;15241;48.374;10.876;2023-10-19T21:20:09;20.25;;;15.58;;
27895;SDS011;15241;48.374;10.876;2023-10-19T21:25:09;22.13;;;16.37;;
27895;SDS011;15241;48.374;10.876;2023-10-19T21:30:08;21.73;;;16.17;;
27895;SDS011;15241;48.374;10.876;2023-10-19T21:35:09;23.18;;;16.45;;
27895;SDS011;15241;48.374;10.876;2023-10-19T21:40:08;20.95;;;16.73;;
27895;SDS011;15241;48.374;10.876;2023-10-19T21:45:09;22.27;;;16.45;;
27895;SDS011;15241;48.374;10.876;2023-10-19T21:50:08;20.95;;;15.70;;
27895;SDS011;15241;48.374;10.876;2023-10-19T21:55:07;21.40;;;15.58;;
27895;SDS011;15241;48.374;10.876;2023-10-19T22:00:08;21.30;;;16.35;;
27895;SDS011;15241;48.374;10.876;2023-10-19T22:05:08;18.45;;;15.55;;
27895;SDS011;15241;48.374;10.876;2023-10-19T22:10:07;21.30;;;15.15;;
27895;SDS011;15241;48.374;10.876;2023-10-19T22:15:07;20.37;;;15.68;;
27895;SDS011;15241;48.374;10.876;2023-10-19T22:20:08;24.37;;;15.05;;
27895;SDS011;15241;48.374;10.876;2023-10-19T22:25:08;19.02;;;15.78;;
27895;SDS011;15241;48.374;10.876;2023-10-19T22:30:08;21.42;;;16.12;;
27895;SDS011;15241;48.374;10.876;2023-10-19T22:35:08;27.52;;;16.45;;
27895;SDS011;15241;48.374;10.876;2023-10-19T22:40:07;18.95;;;15.10;;
27895;SDS011;15241;48.374;10.876;2023-10-19T22:45:07;17.75;;;14.50;;
27895;SDS011;15241;48.374;10.876;2023-10-19T22:50:07;20.48;;;15.10;;
27895;SDS011;15241;48.374;10.876;2023-10-19T22:55:07;22.60;;;15.80;;
27895;SDS011;15241;48.374;10.876;2023-10-19T23:00:08;19.23;;;15.28;;
27895;SDS011;15241;48.374;10.876;2023-10-19T23:05:08;22.13;;;14.85;;
27895;SDS011;15241;48.374;10.876;2023-10-19T23:10:08;20.45;;;14.63;;
27895;SDS011;15241;48.374;10.876;2023-10-19T23:15:08;22.77;;;15.75;;
27895;SDS011;15241;48.374;10.876;2023-10-19T23:20:07;22.82;;;15.72;;
27895;SDS011;15241;48.374;10.876;2023-10-19T23:25:07;20.48;;;15.83;;
27895;SDS011;15241;48.374;10.876;2023-10-19T23:30:07;21.17;;;15.95;;
27895;SDS011;15241;48.374;10.876;2023-10-19T23:35:07;22.90;;;16.37;;
27895;SDS011;15241;48.374;10.876;2023-10-19T23:40:08;25.17;;;17.23;;
27895;SDS011;15241;48.374;10.876;2023-10-19T23:45:08;21.68;;;16.37;;
27895;SDS011;15241;48.374;10.876;2023-10-19T23:50:08;20.72;;;14.87;;
27895;SDS011;15241;48.374;10.876;2023-10-19T23:55:07;20.82;;;15.25;;
